Time;durP1;ratioP1;P1;durP2;ratioP2;P2;SDS_P1;SDS_P2;PMS_P1;PMS_P2;Temp;Humidity;BMP_temperature;BMP_pressure;BME280_temperature;BME280_humidity;BME280_pressure;Samples;Min_cycle;Max_cycle;Signal;HPM_P1;HPM_P2
2022/03/20 00:01:22;;;;;;;11.10;7.27;;;8.30;86.10;;;;;;5049303;28;20202;-79
2022/03/20 00:03:48;;;;;;;9.97;7.27;;;8.20;86.00;;;;;;5035028;28;20264;-76
2022/03/20 00:06:16;;;;;;;8.17;7.03;;;8.20;86.00;;;;;;5047422;28;20186;-79
2022/03/20 00:08:44;;;;;;;8.80;7.27;;;8.20;85.70;;;;;;5070256;28;20279;-73
2022/03/20 00:11:12;;;;;;;9.40;7.07;;;8.10;85.90;;;;;;5050084;28;20177;-77
2022/03/20 00:13:39;;;;;;;9.87;7.77;;;8.00;86.00;;;;;;5053604;28;20205;-77
2022/03/20 00:16:07;;;;;;;9.00;7.27;;;8.00;86.10;;;;;;5045978;28;20201;-74
2022/03/20 00:18:36;;;;;;;10.03;7.57;;;7.90;86.00;;;;;;5062421;28;20192;-70
2022/03/20 00:21:02;;;;;;;9.73;7.30;;;7.90;85.80;;;;;;5048957;28;20246;-79
2022/03/20 00:23:28;;;;;;;9.60;7.87;;;7.90;86.00;;;;;;5055234;28;20200;-77
2022/03/20 00:25:55;;;;;;;8.57;6.80;;;7.80;86.00;;;;;;5052268;28;20193;-78
2022/03/20 00:28:25;;;;;;;8.87;6.60;;;7.80;85.90;;;;;;5063590;28;20202;-71
2022/03/20 00:30:54;;;;;;;8.83;6.23;;;7.80;85.80;;;;;;5048881;28;20189;-80
2022/03/20 00:33:21;;;;;;;9.83;7.13;;;7.70;86.10;;;;;;5047822;28;20362;-74
2022/03/20 00:35:46;;;;;;;9.67;6.83;;;7.70;86.70;;;;;;5051451;28;20227;-73
2022/03/20 00:38:12;;;;;;;8.03;6.20;;;7.70;86.70;;;;;;5051187;28;20200;-76
2022/03/20 00:40:38;;;;;;;11.53;8.53;;;7.70;86.40;;;;;;5043928;28;20224;-78
2022/03/20 00:43:05;;;;;;;9.20;7.30;;;7.70;85.60;;;;;;5046123;28;20217;-79
2022/03/20 00:45:39;;;;;;;9.70;7.43;;;7.60;85.90;;;;;;5049723;28;20204;-77
2022/03/20 00:48:10;;;;;;;10.87;7.30;;;7.60;86.00;;;;;;5057722;28;20193;-73
2022/03/20 00:50:36;;;;;;;8.97;6.47;;;7.60;86.30;;;;;;5045305;28;20181;-73
2022/03/20 00:53:04;;;;;;;9.13;7.10;;;7.50;86.40;;;;;;5046759;28;20247;-74
2022/03/20 00:55:30;;;;;;;10.40;6.73;;;7.60;86.30;;;;;;5036450;28;20209;-76
2022/03/20 00:57:57;;;;;;;9.80;6.70;;;7.50;86.70;;;;;;5045705;28;20223;-68
2022/03/20 01:00:25;;;;;;;8.93;6.73;;;7.50;87.60;;;;;;5053827;28;20461;-79
2022/03/20 01:02:54;;;;;;;10.10;7.37;;;7.40;87.10;;;;;;5055044;28;20193;-73
2022/03/20 01:05:19;;;;;;;11.13;8.03;;;7.50;87.00;;;;;;5042911;28;20193;-78
2022/03/20 01:07:45;;;;;;;10.70;7.60;;;7.40;86.40;;;;;;5060255;28;20181;-75
2022/03/20 01:10:14;;;;;;;10.40;7.80;;;7.40;86.20;;;;;;5036773;28;20182;-78
2022/03/20 01:12:41;;;;;;;10.80;7.80;;;7.40;86.10;;;;;;5048399;28;20178;-75
2022/03/20 01:15:11;;;;;;;10.70;7.73;;;7.40;86.60;;;;;;5050122;28;20267;-78
2022/03/20 01:17:39;;;;;;;9.07;6.97;;;7.40;86.40;;;;;;5044886;28;20268;-78
2022/03/20 01:20:09;;;;;;;11.30;7.70;;;7.50;86.50;;;;;;5044629;28;20194;-78
2022/03/20 01:22:35;;;;;;;9.93;7.07;;;7.50;86.70;;;;;;5053917;28;20201;-79
2022/03/20 01:25:04;;;;;;;9.37;6.43;;;7.60;87.00;;;;;;5052215;28;20181;-78
2022/03/20 01:27:32;;;;;;;9.47;7.27;;;7.60;87.10;;;;;;5056853;28;20208;-74
2022/03/20 01:29:58;;;;;;;9.47;7.03;;;7.60;86.70;;;;;;5042734;28;20200;-78
2022/03/20 01:32:28;;;;;;;10.57;7.00;;;7.60;86.70;;;;;;5043049;28;20416;-78
2022/03/20 01:34:54;;;;;;;10.03;7.40;;;7.70;86.50;;;;;;5048830;28;20210;-79
2022/03/20 01:37:19;;;;;;;9.17;6.90;;;7.70;86.40;;;;;;5050466;28;20184;-76
2022/03/20 01:39:45;;;;;;;9.87;6.67;;;7.70;86.30;;;;;;5052604;28;20230;-77
2022/03/20 01:42:13;;;;;;;11.47;6.90;;;7.80;85.90;;;;;;5051373;28;20193;-79
2022/03/20 01:44:41;;;;;;;9.10;7.30;;;7.80;85.50;;;;;;5057472;28;20185;-77
2022/03/20 01:47:10;;;;;;;9.17;7.07;;;7.80;85.70;;;;;;5048044;28;20177;-77
2022/03/20 01:49:35;;;;;;;9.13;6.27;;;7.80;85.50;;;;;;5048615;28;20201;-78
2022/03/20 01:52:10;;;;;;;8.17;6.73;;;7.80;85.70;;;;;;5045103;28;20200;-75
2022/03/20 01:54:41;;;;;;;9.43;7.00;;;7.90;84.60;;;;;;5055481;28;20209;-79
2022/03/20 01:57:07;;;;;;;8.93;7.13;;;7.90;84.90;;;;;;5042871;28;20201;-77
2022/03/20 01:59:38;;;;;;;7.80;6.43;;;7.80;84.70;;;;;;5048397;28;20194;-69
2022/03/20 02:02:04;;;;;;;10.37;6.83;;;7.80;84.20;;;;;;5046017;28;20421;-79
2022/03/20 02:04:33;;;;;;;8.40;6.37;;;7.80;84.20;;;;;;5057143;28;20178;-78
2022/03/20 02:07:00;;;;;;;7.90;6.20;;;7.70;84.10;;;;;;5042269;28;20390;-74
2022/03/20 02:09:26;;;;;;;9.60;6.57;;;7.70;83.90;;;;;;5044442;28;20281;-70
2022/03/20 02:11:54;;;;;;;9.90;7.30;;;7.70;83.40;;;;;;5048556;28;20268;-69
2022/03/20 02:14:22;;;;;;;8.23;6.20;;;7.60;83.00;;;;;;5044048;28;20265;-70
2022/03/20 02:16:48;;;;;;;8.37;6.57;;;7.60;83.80;;;;;;5052849;28;20181;-70
2022/03/20 02:19:14;;;;;;;9.07;6.70;;;7.50;83.00;;;;;;5051137;28;20256;-69
2022/03/20 02:21:48;;;;;;;9.20;6.50;;;7.50;83.20;;;;;;5053813;28;20209;-70
2022/03/20 02:24:36;;;;;;;8.37;6.10;;;7.40;82.80;;;;;;5047544;28;20251;-70
2022/03/20 02:27:08;;;;;;;7.43;6.37;;;7.40;82.40;;;;;;5074484;28;20314;-70
2022/03/20 02:29:36;;;;;;;9.17;6.50;;;7.30;82.80;;;;;;5055114;28;20173;-70
2022/03/20 02:32:04;;;;;;;9.50;6.13;;;7.30;83.00;;;;;;5051388;28;20169;-69
2022/03/20 02:34:31;;;;;;;9.17;6.63;;;7.20;82.90;;;;;;5065998;28;20162;-70
2022/03/20 02:37:02;;;;;;;9.03;6.87;;;7.10;83.00;;;;;;5050507;28;20181;-69
2022/03/20 02:39:29;;;;;;;9.33;7.10;;;7.10;82.10;;;;;;5054607;28;20174;-70
2022/03/20 02:41:55;;;;;;;9.87;6.97;;;7.00;83.20;;;;;;5067743;28;20204;-69
2022/03/20 02:45:03;;;;;;;9.03;6.40;;;7.00;82.90;;;;;;5053836;28;20224;-70
2022/03/20 02:47:35;;;;;;;9.47;6.47;;;6.90;82.60;;;;;;5042507;28;20173;-71
2022/03/20 02:50:05;;;;;;;8.57;6.20;;;6.80;83.10;;;;;;5053723;28;20174;-69
2022/03/20 02:52:52;;;;;;;8.63;6.30;;;6.80;83.40;;;;;;5051699;28;20170;-69
2022/03/20 02:55:22;;;;;;;8.20;6.60;;;6.80;83.60;;;;;;5028495;28;20275;-70
2022/03/20 02:57:50;;;;;;;7.57;6.17;;;6.70;83.40;;;;;;5036137;28;20197;-70
2022/03/20 03:00:21;;;;;;;7.60;5.90;;;6.70;83.70;;;;;;5046785;28;20182;-69
2022/03/20 03:02:47;;;;;;;7.90;6.13;;;6.60;83.60;;;;;;5052829;28;20242;-70
2022/03/20 03:05:18;;;;;;;8.67;6.17;;;6.60;83.70;;;;;;5036803;28;20212;-70
2022/03/20 03:13:19;;;;;;;8.97;6.20;;;6.40;84.20;;;;;;5055122;28;20181;-68
2022/03/20 03:15:45;;;;;;;8.87;6.30;;;6.30;84.40;;;;;;5055477;28;20200;-70
2022/03/20 03:18:11;;;;;;;8.43;6.00;;;6.30;84.70;;;;;;5049529;28;20272;-70
2022/03/20 03:20:40;;;;;;;7.57;5.80;;;6.20;84.80;;;;;;5047819;28;23952;-69
2022/03/20 03:23:05;;;;;;;8.10;5.80;;;6.20;85.00;;;;;;5044101;28;20174;-70
2022/03/20 03:25:35;;;;;;;8.23;5.87;;;6.20;85.00;;;;;;5049438;28;20252;-70
2022/03/20 03:28:01;;;;;;;9.17;6.37;;;6.10;84.90;;;;;;5034501;28;20185;-70
2022/03/20 03:30:29;;;;;;;8.33;5.83;;;6.10;85.10;;;;;;5041291;28;20177;-69
2022/03/20 03:33:03;;;;;;;9.63;5.97;;;6.00;85.10;;;;;;5050557;28;20188;-70
2022/03/20 03:35:51;;;;;;;7.83;6.47;;;6.00;85.20;;;;;;5052730;28;20205;-70
2022/03/20 03:38:26;;;;;;;8.93;6.77;;;5.90;85.30;;;;;;5051963;28;20300;-69
2022/03/20 03:40:52;;;;;;;7.73;6.30;;;5.90;85.50;;;;;;5058994;28;20169;-68
2022/03/20 03:43:18;;;;;;;8.23;6.47;;;5.80;85.70;;;;;;5047930;28;20181;-70
2022/03/20 03:45:45;;;;;;;8.57;6.20;;;5.80;85.90;;;;;;5047026;28;20255;-70
2022/03/20 03:48:12;;;;;;;9.43;6.30;;;5.80;86.30;;;;;;5048823;28;20231;-69
2022/03/20 03:50:43;;;;;;;8.23;6.23;;;5.80;86.60;;;;;;5046301;28;20205;-70
2022/03/20 03:53:11;;;;;;;8.30;5.97;;;5.80;86.70;;;;;;5043457;28;20334;-71
2022/03/20 03:55:43;;;;;;;8.10;6.00;;;5.70;86.60;;;;;;5040750;28;20204;-70
2022/03/20 03:58:13;;;;;;;7.90;6.00;;;5.70;86.60;;;;;;5052910;28;20189;-70
2022/03/20 04:00:43;;;;;;;9.20;6.00;;;5.70;86.60;;;;;;5052463;28;20178;-70
2022/03/20 04:03:13;;;;;;;6.97;5.50;;;5.60;86.60;;;;;;5047524;28;20219;-70
2022/03/20 04:05:39;;;;;;;9.43;6.33;;;5.60;86.90;;;;;;5060434;28;20197;-69
2022/03/20 04:08:11;;;;;;;8.07;6.20;;;5.60;87.70;;;;;;5046155;28;20184;-71
2022/03/20 04:10:36;;;;;;;9.50;6.47;;;5.60;87.40;;;;;;5064574;28;20197;-69
2022/03/20 04:13:08;;;;;;;9.20;6.50;;;5.50;87.30;;;;;;5050389;28;20247;-70
2022/03/20 04:15:39;;;;;;;8.20;6.30;;;5.50;87.70;;;;;;5053538;28;20258;-70
2022/03/20 04:18:04;;;;;;;9.10;6.43;;;5.50;87.50;;;;;;5053090;28;20551;-69
2022/03/20 04:20:30;;;;;;;9.17;7.03;;;5.50;87.60;;;;;;5053676;28;20174;-70
2022/03/20 04:25:42;;;;;;;9.07;6.37;;;5.40;87.80;;;;;;5046891;28;20189;-70
2022/03/20 04:28:09;;;;;;;9.87;6.43;;;5.40;88.00;;;;;;5040088;28;20188;-71
2022/03/20 04:30:39;;;;;;;9.33;6.70;;;5.40;88.10;;;;;;5043364;28;20189;-70
2022/03/20 04:33:05;;;;;;;9.23;6.93;;;5.40;88.90;;;;;;5068937;28;20181;-70
2022/03/20 04:35:31;;;;;;;8.73;6.57;;;5.40;88.50;;;;;;5052677;28;20190;-69
2022/03/20 04:38:02;;;;;;;8.63;6.90;;;5.40;88.60;;;;;;5052488;28;20184;-70
2022/03/20 04:40:28;;;;;;;9.17;6.80;;;5.40;88.30;;;;;;5056372;28;20420;-70
2022/03/20 04:42:53;;;;;;;10.63;7.27;;;5.30;89.00;;;;;;5047038;28;20181;-70
2022/03/20 04:45:19;;;;;;;10.03;7.67;;;5.40;88.60;;;;;;5062673;28;20182;-70
2022/03/20 04:58:43;;;;;;;10.30;6.70;;;5.50;89.60;;;;;;5040370;28;20204;-70
2022/03/20 05:01:14;;;;;;;10.27;7.07;;;5.60;89.70;;;;;;5054517;28;20177;-67
2022/03/20 05:03:39;;;;;;;9.73;7.00;;;5.70;89.60;;;;;;5052606;28;20173;-70
2022/03/20 05:06:05;;;;;;;9.30;6.83;;;5.80;89.90;;;;;;5050578;28;20188;-69
2022/03/20 05:08:32;;;;;;;10.20;6.80;;;5.80;89.80;;;;;;5050837;28;20369;-70
2022/03/20 05:13:42;;;;;;;9.03;6.63;;;6.00;89.80;;;;;;5047104;28;20240;-69
2022/03/20 05:16:08;;;;;;;8.40;6.60;;;6.00;89.80;;;;;;5043737;28;20205;-70
2022/03/20 05:18:36;;;;;;;10.43;7.30;;;6.00;89.80;;;;;;5051840;28;20178;-70
2022/03/20 05:21:02;;;;;;;10.07;6.77;;;6.10;89.50;;;;;;5047502;28;20216;-70
2022/03/20 05:23:30;;;;;;;9.23;6.97;;;6.10;89.60;;;;;;5034443;28;20373;-68
2022/03/20 05:26:00;;;;;;;9.73;7.53;;;6.10;89.50;;;;;;5049933;28;20264;-70
2022/03/20 05:28:28;;;;;;;9.93;7.70;;;6.10;89.20;;;;;;5047613;28;20185;-70
2022/03/20 05:30:57;;;;;;;11.03;8.30;;;6.20;89.70;;;;;;5053895;28;20683;-70
2022/03/20 05:33:25;;;;;;;10.10;7.77;;;6.20;89.40;;;;;;5054565;28;20177;-70
2022/03/20 05:35:53;;;;;;;12.23;8.80;;;6.20;89.60;;;;;;5050682;28;20198;-70
2022/03/20 05:38:23;;;;;;;11.27;8.30;;;6.30;89.50;;;;;;5048539;28;20260;-70
2022/03/20 05:40:49;;;;;;;12.27;8.70;;;6.30;89.90;;;;;;5047950;28;20221;-70
2022/03/20 05:43:17;;;;;;;13.57;9.63;;;6.30;89.50;;;;;;5052468;28;20189;-70
2022/03/20 05:45:45;;;;;;;12.20;8.73;;;6.40;89.20;;;;;;5047259;28;20181;-68
2022/03/20 05:48:13;;;;;;;12.60;8.43;;;6.40;89.70;;;;;;5052605;28;20212;-70
2022/03/20 05:50:38;;;;;;;10.57;8.13;;;6.50;90.00;;;;;;5047598;28;20169;-70
2022/03/20 05:53:06;;;;;;;11.50;8.13;;;6.50;90.00;;;;;;5035181;28;20296;-70
2022/03/20 05:58:23;;;;;;;12.43;9.07;;;6.60;90.00;;;;;;5052073;28;20278;-71
2022/03/20 06:00:53;;;;;;;12.50;8.50;;;6.70;89.80;;;;;;5054824;28;20264;-71
2022/03/20 06:03:20;;;;;;;9.97;7.90;;;6.70;89.50;;;;;;5039488;28;20178;-70
2022/03/20 06:05:48;;;;;;;11.80;8.27;;;6.70;90.00;;;;;;5053072;28;20191;-70
2022/03/20 06:08:14;;;;;;;11.57;8.30;;;6.70;90.00;;;;;;5051009;28;20202;-71
2022/03/20 06:10:41;;;;;;;11.43;8.17;;;6.80;90.30;;;;;;5050058;28;20180;-71
2022/03/20 06:13:09;;;;;;;10.53;8.10;;;6.80;90.20;;;;;;5054062;28;20276;-70
2022/03/20 06:15:36;;;;;;;11.43;8.40;;;6.80;90.30;;;;;;5049537;28;20221;-70
2022/03/20 06:18:07;;;;;;;11.27;8.37;;;6.90;90.50;;;;;;5049799;28;20177;-70
2022/03/20 06:20:38;;;;;;;13.57;8.97;;;7.00;90.40;;;;;;5035740;28;20182;-70
2022/03/20 06:23:03;;;;;;;10.53;8.30;;;7.00;90.60;;;;;;5045923;28;20201;-70
2022/03/20 06:25:31;;;;;;;12.13;8.80;;;7.10;90.70;;;;;;5050081;28;20238;-69
2022/03/20 06:27:59;;;;;;;12.47;8.87;;;7.20;90.70;;;;;;5051766;28;20180;-68
2022/03/20 06:30:27;;;;;;;11.97;9.17;;;7.20;90.50;;;;;;5053790;28;20185;-70
2022/03/20 06:32:55;;;;;;;10.57;8.50;;;7.30;90.50;;;;;;5055674;28;20188;-69
2022/03/20 06:35:20;;;;;;;12.07;8.33;;;7.30;90.20;;;;;;5055182;28;20209;-70
2022/03/20 06:37:50;;;;;;;12.93;8.97;;;7.30;90.20;;;;;;5054863;28;20178;-70
2022/03/20 06:40:18;;;;;;;11.80;8.97;;;7.30;90.10;;;;;;5043857;28;20174;-68
2022/03/20 06:42:44;;;;;;;12.03;8.70;;;7.40;90.10;;;;;;5043585;28;20193;-70
2022/03/20 06:45:14;;;;;;;11.53;8.93;;;7.40;90.30;;;;;;5056345;28;20185;-71
2022/03/20 06:47:42;;;;;;;11.07;8.40;;;7.40;90.30;;;;;;5046965;28;20177;-70
2022/03/20 06:50:10;;;;;;;12.13;8.77;;;7.40;90.30;;;;;;5059675;28;20247;-70
2022/03/20 06:52:38;;;;;;;12.40;8.50;;;7.50;90.40;;;;;;5055294;28;20181;-70
2022/03/20 06:55:12;;;;;;;12.80;9.20;;;7.50;90.50;;;;;;5050339;28;20208;-69
2022/03/20 06:57:43;;;;;;;11.80;9.30;;;7.50;90.10;;;;;;5051537;28;20567;-70
2022/03/20 07:00:10;;;;;;;12.10;9.57;;;7.50;90.30;;;;;;5049797;28;20383;-68
2022/03/20 07:02:38;;;;;;;12.77;10.40;;;7.60;90.30;;;;;;5044135;28;20221;-70
2022/03/20 07:05:07;;;;;;;13.97;10.03;;;7.60;89.80;;;;;;5054603;28;20177;-71
2022/03/20 07:07:38;;;;;;;14.73;10.50;;;7.70;90.00;;;;;;5048957;28;20185;-70
2022/03/20 07:10:06;;;;;;;17.53;12.80;;;7.70;89.90;;;;;;5048689;28;20201;-70
2022/03/20 07:12:31;;;;;;;16.53;11.27;;;7.70;88.00;;;;;;5045522;28;20234;-71
2022/03/20 07:14:59;;;;;;;14.30;10.30;;;7.70;88.80;;;;;;5043715;28;20201;-70
2022/03/20 07:17:28;;;;;;;14.17;10.03;;;7.70;89.10;;;;;;5048875;28;20280;-71
2022/03/20 07:19:55;;;;;;;16.07;11.40;;;7.70;89.70;;;;;;5051409;28;20196;-67
2022/03/20 07:22:23;;;;;;;17.00;12.50;;;7.70;89.00;;;;;;5048831;28;20170;-69
2022/03/20 07:24:49;;;;;;;16.17;11.87;;;7.80;88.60;;;;;;5037164;28;20178;-70
2022/03/20 07:29:59;;;;;;;16.27;11.77;;;7.80;88.40;;;;;;5041145;28;20256;-69
2022/03/20 07:32:25;;;;;;;18.70;14.17;;;7.80;87.90;;;;;;5045348;28;20200;-70
2022/03/20 07:34:51;;;;;;;20.30;15.13;;;7.80;86.60;;;;;;5048541;28;20229;-67
2022/03/20 07:37:21;;;;;;;22.30;15.40;;;7.80;85.90;;;;;;5054033;28;20193;-70
2022/03/20 07:39:54;;;;;;;20.00;14.60;;;7.80;84.50;;;;;;5041604;28;20182;-70
2022/03/20 07:42:26;;;;;;;20.47;14.10;;;7.80;84.70;;;;;;5045190;28;20173;-70
2022/03/20 07:44:52;;;;;;;20.07;14.03;;;7.90;86.40;;;;;;5050786;28;20197;-70
2022/03/20 07:47:24;;;;;;;18.50;13.93;;;7.90;86.60;;;;;;5053133;28;20322;-70
2022/03/20 07:49:50;;;;;;;16.17;12.43;;;8.00;85.70;;;;;;5048735;28;20182;-70
2022/03/20 07:52:16;;;;;;;18.37;13.40;;;8.00;87.00;;;;;;5046949;28;20250;-68
2022/03/20 07:54:45;;;;;;;16.20;13.17;;;8.00;86.60;;;;;;5050096;28;20229;-70
2022/03/20 07:57:11;;;;;;;18.10;13.00;;;8.10;86.90;;;;;;5038701;28;20177;-70
2022/03/20 07:59:37;;;;;;;17.57;12.90;;;8.10;87.20;;;;;;5044969;28;20208;-70
2022/03/20 08:02:03;;;;;;;17.90;12.67;;;8.10;87.40;;;;;;5052438;28;20180;-71
2022/03/20 08:04:31;;;;;;;14.37;11.13;;;8.10;87.70;;;;;;5051532;28;20189;-66
2022/03/20 08:06:57;;;;;;;15.47;11.47;;;8.20;88.60;;;;;;5052326;28;20161;-70
2022/03/20 08:09:22;;;;;;;16.03;12.43;;;8.30;89.10;;;;;;5050686;28;20208;-70
2022/03/20 08:11:48;;;;;;;17.90;12.23;;;8.40;89.10;;;;;;5043953;28;20221;-71
2022/03/20 08:14:16;;;;;;;16.17;12.93;;;8.40;89.10;;;;;;5049887;28;20200;-70
2022/03/20 08:16:42;;;;;;;20.23;15.17;;;8.50;88.10;;;;;;5069980;28;20224;-70
2022/03/20 08:19:12;;;;;;;20.97;15.00;;;8.60;86.40;;;;;;5053520;28;20197;-71
2022/03/20 08:21:40;;;;;;;21.60;15.63;;;8.60;86.50;;;;;;5037881;28;20182;-71
2022/03/20 08:24:06;;;;;;;21.80;15.07;;;8.70;86.20;;;;;;5052486;28;20200;-70
2022/03/20 08:26:33;;;;;;;20.77;15.13;;;8.70;86.40;;;;;;5072643;28;20178;-70
2022/03/20 08:29:04;;;;;;;17.53;13.50;;;8.80;86.50;;;;;;5058611;28;20220;-70
2022/03/20 08:31:34;;;;;;;16.40;12.43;;;8.80;86.30;;;;;;5036006;28;20209;-71
2022/03/20 08:34:00;;;;;;;19.27;12.80;;;8.90;86.90;;;;;;5048073;28;20272;-70
2022/03/20 08:36:27;;;;;;;19.00;14.87;;;9.00;87.60;;;;;;5066627;28;20221;-71
2022/03/20 08:38:58;;;;;;;16.13;13.60;;;9.10;86.90;;;;;;5051098;28;20193;-69
2022/03/20 08:41:23;;;;;;;19.30;15.00;;;9.30;87.00;;;;;;5049772;28;20177;-70
2022/03/20 08:43:53;;;;;;;21.83;16.57;;;9.40;86.00;;;;;;5044740;28;20177;-70
2022/03/20 08:46:23;;;;;;;18.67;15.27;;;9.50;85.10;;;;;;5064202;28;20187;-71
2022/03/20 08:48:48;;;;;;;19.30;14.10;;;9.60;84.90;;;;;;5050178;28;20197;-70
2022/03/20 08:51:14;;;;;;;18.57;15.03;;;9.80;86.50;;;;;;5046168;28;20217;-70
2022/03/20 08:53:44;;;;;;;19.60;14.23;;;9.80;85.20;;;;;;5048221;28;20294;-71
2022/03/20 08:56:12;;;;;;;17.63;13.73;;;9.90;84.80;;;;;;5047985;28;20208;-71
2022/03/20 08:58:38;;;;;;;19.53;14.00;;;10.00;84.20;;;;;;5051883;28;20195;-72
2022/03/20 09:01:07;;;;;;;20.00;14.43;;;10.10;84.10;;;;;;5047555;28;20178;-70
2022/03/20 09:03:35;;;;;;;17.00;14.37;;;10.10;83.00;;;;;;5039421;28;20246;-70
2022/03/20 09:06:01;;;;;;;20.63;14.93;;;10.20;82.30;;;;;;5042229;28;20293;-72
2022/03/20 09:08:29;;;;;;;18.60;15.00;;;10.30;83.20;;;;;;5061381;28;20332;-72
2022/03/20 09:10:54;;;;;;;20.30;15.80;;;10.30;81.60;;;;;;5036567;28;20184;-68
2022/03/20 09:13:22;;;;;;;18.33;14.77;;;10.40;80.80;;;;;;5046190;28;20205;-72
2022/03/20 09:18:59;;;;;;;20.37;15.43;;;10.40;81.70;;;;;;5045357;28;20201;-71
2022/03/20 09:21:20;;;;;;;18.27;13.80;;;10.60;81.60;;;;;;5038618;28;20209;-68
2022/03/20 09:23:48;;;;;;;16.97;13.13;;;10.70;82.60;;;;;;5047892;28;20182;-70
2022/03/20 09:26:16;;;;;;;16.60;13.57;;;10.80;82.40;;;;;;5048480;28;20188;-70
2022/03/20 09:28:47;;;;;;;17.80;14.73;;;10.80;80.60;;;;;;5054000;28;20177;-70
2022/03/20 09:31:19;;;;;;;18.03;14.00;;;11.00;80.40;;;;;;5053827;28;20184;-69
2022/03/20 09:33:47;;;;;;;21.90;15.27;;;11.10;80.40;;;;;;5051750;28;20193;-69
2022/03/20 09:36:13;;;;;;;18.75;14.35;;;11.20;80.80;;;;;;5046398;28;20213;-71
2022/03/20 09:38:41;;;;;;;20.73;16.80;;;11.30;81.00;;;;;;5049035;28;20194;-71
2022/03/20 09:41:09;;;;;;;19.35;15.05;;;11.40;79.30;;;;;;5040826;28;20193;-71
2022/03/20 09:43:40;;;;;;;18.73;14.73;;;11.60;80.00;;;;;;5052178;28;20182;-70
2022/03/20 09:46:10;;;;;;;19.42;15.27;;;11.70;79.30;;;;;;5056116;28;20177;-71
2022/03/20 09:48:41;;;;;;;18.95;15.02;;;11.90;77.30;;;;;;5038379;28;20240;-71
2022/03/20 09:51:07;;;;;;;22.55;14.85;;;12.10;78.30;;;;;;5056472;28;20201;-72
2022/03/20 09:53:35;;;;;;;20.60;15.80;;;12.50;77.80;;;;;;5042895;28;20240;-69
2022/03/20 09:56:05;;;;;;;17.05;13.95;;;12.80;77.00;;;;;;5055901;28;20186;-72
2022/03/20 09:58:33;;;;;;;15.45;12.60;;;13.20;76.60;;;;;;5055990;28;20188;-72
2022/03/20 10:01:02;;;;;;;18.48;13.73;;;13.60;77.30;;;;;;5054833;28;20201;-72
2022/03/20 10:03:30;;;;;;;22.05;16.52;;;13.80;74.40;;;;;;5055949;28;20169;-71
2022/03/20 10:06:17;;;;;;;20.73;15.50;;;14.00;71.10;;;;;;5055145;28;20234;-71
2022/03/20 10:09:07;;;;;;;20.13;15.93;;;14.10;65.20;;;;;;5055755;28;20173;-71
2022/03/20 10:11:38;;;;;;;17.85;14.23;;;14.10;64.40;;;;;;5060457;28;20251;-71
2022/03/20 10:14:16;;;;;;;18.40;13.77;;;14.10;68.70;;;;;;5055592;28;20239;-72
2022/03/20 10:16:48;;;;;;;16.50;13.63;;;14.00;68.20;;;;;;5035813;28;20216;-71
2022/03/20 10:19:25;;;;;;;18.15;14.23;;;13.90;68.90;;;;;;5065893;28;20207;-71
2022/03/20 10:22:00;;;;;;;20.40;15.68;;;13.90;66.30;;;;;;5068323;28;20181;-72
2022/03/20 10:24:29;;;;;;;19.73;14.63;;;14.00;66.40;;;;;;5054477;28;20169;-70
2022/03/20 10:27:00;;;;;;;20.25;16.27;;;14.20;67.50;;;;;;5043985;28;20177;-69
2022/03/20 10:29:32;;;;;;;20.95;16.00;;;14.40;66.10;;;;;;5053397;28;20169;-72
2022/03/20 10:32:10;;;;;;;19.30;13.75;;;14.50;65.40;;;;;;5034651;28;20201;-70
2022/03/20 10:34:52;;;;;;;16.83;14.38;;;14.60;64.20;;;;;;5053194;28;20195;-72
2022/03/20 10:37:20;;;;;;;18.98;15.52;;;14.70;67.70;;;;;;5042048;28;20170;-72
2022/03/20 10:39:46;;;;;;;18.20;15.00;;;14.70;65.90;;;;;;5054489;28;20180;-70
2022/03/20 10:42:16;;;;;;;18.10;14.40;;;14.60;65.80;;;;;;5055033;28;20256;-72
2022/03/20 10:44:42;;;;;;;18.02;13.73;;;14.40;65.80;;;;;;5054977;28;20221;-73
2022/03/20 10:47:16;;;;;;;14.48;12.35;;;14.30;67.00;;;;;;5054716;28;20245;-71
2022/03/20 10:49:50;;;;;;;16.20;12.55;;;14.30;69.10;;;;;;5060738;28;20168;-73
2022/03/20 10:52:23;;;;;;;16.67;14.23;;;14.60;69.60;;;;;;5074896;28;20243;-72
2022/03/20 10:54:58;;;;;;;18.75;15.48;;;14.80;66.30;;;;;;5054774;28;20173;-72
2022/03/20 10:57:35;;;;;;;16.88;14.00;;;15.10;66.20;;;;;;5051460;28;20284;-70
2022/03/20 11:00:06;;;;;;;19.13;13.60;;;15.30;65.70;;;;;;5042382;28;20235;-69
2022/03/20 11:02:31;;;;;;;17.05;14.07;;;15.50;65.20;;;;;;5054790;28;20601;-72
2022/03/20 11:04:57;;;;;;;15.80;14.05;;;15.60;67.00;;;;;;5054726;28;20204;-71
2022/03/20 11:07:30;;;;;;;16.80;12.95;;;15.70;66.60;;;;;;5054764;28;20177;-71
2022/03/20 11:10:00;;;;;;;19.80;15.00;;;15.70;64.90;;;;;;5054997;28;20184;-70
2022/03/20 11:12:35;;;;;;;15.80;13.32;;;15.60;65.90;;;;;;5039801;28;20181;-72
2022/03/20 11:15:08;;;;;;;17.88;15.05;;;15.60;64.50;;;;;;5066358;28;20214;-70
2022/03/20 11:17:37;;;;;;;21.40;16.08;;;15.60;64.10;;;;;;5069400;28;20342;-72
2022/03/20 11:20:10;;;;;;;18.45;15.38;;;15.70;65.00;;;;;;5054306;28;20177;-70
2022/03/20 11:22:48;;;;;;;21.25;17.48;;;15.70;65.70;;;;;;5054490;28;20196;-71
2022/03/20 11:25:20;;;;;;;20.40;15.95;;;15.60;62.90;;;;;;5054186;28;20173;-72
2022/03/20 11:27:51;;;;;;;18.08;14.88;;;15.50;64.80;;;;;;5034448;28;20328;-72
2022/03/20 11:30:25;;;;;;;18.55;14.35;;;15.40;65.70;;;;;;5045451;28;20212;-72
2022/03/20 11:32:56;;;;;;;18.65;14.43;;;15.30;65.80;;;;;;5053855;28;20205;-72
2022/03/20 11:35:33;;;;;;;19.33;15.32;;;15.40;68.20;;;;;;5054346;28;20276;-70
2022/03/20 11:38:21;;;;;;;19.67;15.32;;;15.50;66.50;;;;;;5042685;28;20478;-72
2022/03/20 11:41:07;;;;;;;19.83;15.93;;;15.80;68.20;;;;;;5059855;28;20565;-72
2022/03/20 11:43:35;;;;;;;18.25;15.23;;;16.00;67.60;;;;;;5059301;28;20200;-72
2022/03/20 11:46:29;;;;;;;17.70;15.40;;;16.10;69.30;;;;;;5054084;28;20181;-72
2022/03/20 11:49:17;;;;;;;19.38;14.70;;;16.10;67.40;;;;;;5054159;28;20204;-71
2022/03/20 11:51:52;;;;;;;16.48;13.73;;;16.10;67.20;;;;;;5050617;28;20201;-72
2022/03/20 11:54:18;;;;;;;17.23;13.32;;;16.00;67.60;;;;;;5054068;28;20200;-71
2022/03/20 11:56:43;;;;;;;18.83;15.15;;;15.90;68.10;;;;;;5053596;28;20216;-71
2022/03/20 11:59:47;;;;;;;20.10;16.15;;;15.80;67.80;;;;;;5053246;28;20211;-71
2022/03/20 12:02:17;;;;;;;19.73;14.57;;;15.70;67.10;;;;;;5033925;28;20204;-70
2022/03/20 12:05:09;;;;;;;19.55;15.70;;;15.50;68.20;;;;;;5052869;28;20204;-72
2022/03/20 12:07:55;;;;;;;21.05;16.67;;;15.30;66.00;;;;;;5053694;28;20184;-72
2022/03/20 12:10:51;;;;;;;18.17;14.90;;;15.20;67.20;;;;;;5029753;28;20235;-71
2022/03/20 12:13:44;;;;;;;18.60;15.10;;;15.00;67.20;;;;;;5033809;28;20177;-70
2022/03/20 12:16:29;;;;;;;19.60;15.38;;;14.90;68.10;;;;;;5051927;28;20186;-68
2022/03/20 12:19:13;;;;;;;16.98;13.80;;;14.80;69.20;;;;;;5052719;28;20267;-71
2022/03/20 12:21:54;;;;;;;19.33;15.30;;;14.80;68.90;;;;;;5055276;28;20197;-71
2022/03/20 12:25:00;;;;;;;21.45;16.83;;;14.80;68.80;;;;;;5054276;28;20173;-69
2022/03/20 12:27:25;;;;;;;18.15;14.50;;;14.80;68.20;;;;;;5051786;28;20208;-72
2022/03/20 12:30:13;;;;;;;18.10;13.40;;;14.90;71.90;;;;;;5053286;28;20239;-71
2022/03/20 12:32:48;;;;;;;17.70;13.35;;;15.00;72.00;;;;;;5053750;28;20201;-70
2022/03/20 12:35:22;;;;;;;18.27;14.70;;;15.10;72.50;;;;;;5068135;28;20487;-72
2022/03/20 12:37:48;;;;;;;18.58;13.95;;;15.20;71.10;;;;;;5056566;28;20178;-71
2022/03/20 12:40:21;;;;;;;17.58;13.82;;;15.20;72.00;;;;;;5033539;28;20201;-71
2022/03/20 12:43:03;;;;;;;16.50;13.98;;;15.20;72.60;;;;;;5073754;28;20176;-71
2022/03/20 12:45:32;;;;;;;17.13;12.88;;;15.20;71.90;;;;;;5058931;28;20208;-71
2022/03/20 12:48:05;;;;;;;15.13;11.95;;;15.20;73.30;;;;;;5053105;28;20193;-69
2022/03/20 12:50:42;;;;;;;13.98;12.07;;;15.20;73.50;;;;;;5034385;28;20213;-71
2022/03/20 12:53:07;;;;;;;15.32;11.60;;;15.20;74.10;;;;;;5036058;28;20276;-71
2022/03/20 12:55:35;;;;;;;15.73;12.98;;;15.20;74.70;;;;;;5071199;28;20288;-71
2022/03/20 12:58:02;;;;;;;15.00;12.23;;;15.20;74.30;;;;;;5057114;28;20184;-72
2022/03/20 13:00:37;;;;;;;15.88;12.82;;;15.20;74.70;;;;;;5057315;28;20220;-69
2022/03/20 13:03:15;;;;;;;17.15;13.65;;;15.20;74.40;;;;;;5056627;28;20176;-71
2022/03/20 13:05:58;;;;;;;15.63;12.20;;;15.20;74.30;;;;;;5068706;28;20223;-70
2022/03/20 13:08:35;;;;;;;16.73;12.30;;;15.10;74.90;;;;;;5074216;28;20207;-72
2022/03/20 13:11:48;;;;;;;16.95;10.48;;;15.10;75.40;;;;;;5056911;28;20184;-72
2022/03/20 13:14:03;;;;;;;14.35;11.10;;;15.10;76.30;;;;;;5057289;28;20308;-72
2022/03/20 13:16:29;;;;;;;15.18;10.18;;;15.20;75.90;;;;;;5056519;28;20217;-71
2022/03/20 13:18:57;;;;;;;11.95;9.73;;;15.10;77.50;;;;;;5056665;28;20215;-71
2022/03/20 13:21:25;;;;;;;12.80;9.25;;;15.10;77.40;;;;;;5051795;28;20173;-70
2022/03/20 13:23:53;;;;;;;16.17;11.88;;;15.20;78.10;;;;;;5056612;28;20177;-72
2022/03/20 13:26:22;;;;;;;13.30;11.07;;;15.20;78.40;;;;;;5056751;28;20174;-72
2022/03/20 13:28:48;;;;;;;13.50;11.40;;;15.20;78.50;;;;;;5056747;28;20207;-71